sensor_id;sensor_type;location;lat;lon;timestamp;P1;durP1;ratioP1;P2;durP2;ratioP2
19026;SDS011;9646;52.034;5.554;2023-04-03T00:01:43;1.30;;;0.85;;
19026;SDS011;9646;52.034;5.554;2023-04-03T00:04:10;1.48;;;1.05;;
19026;SDS011;9646;52.034;5.554;2023-04-03T00:06:37;1.17;;;0.90;;
19026;SDS011;9646;52.034;5.554;2023-04-03T00:09:04;1.90;;;1.00;;
19026;SDS011;9646;52.034;5.554;2023-04-03T00:11:31;2.00;;;1.02;;
19026;SDS011;9646;52.034;5.554;2023-04-03T00:13:59;2.03;;;0.80;;
19026;SDS011;9646;52.034;5.554;2023-04-03T00:16:27;1.42;;;1.00;;
19026;SDS011;9646;52.034;5.554;2023-04-03T00:18:54;0.98;;;0.63;;
19026;SDS011;9646;52.034;5.554;2023-04-03T00:21:21;1.50;;;1.02;;
19026;SDS011;9646;52.034;5.554;2023-04-03T00:23:48;2.95;;;1.10;;
19026;SDS011;9646;52.034;5.554;2023-04-03T00:26:15;1.40;;;0.90;;
19026;SDS011;9646;52.034;5.554;2023-04-03T00:28:42;1.27;;;0.77;;
19026;SDS011;9646;52.034;5.554;2023-04-03T00:31:10;1.40;;;1.00;;
19026;SDS011;9646;52.034;5.554;2023-04-03T00:33:40;1.40;;;0.93;;
19026;SDS011;9646;52.034;5.554;2023-04-03T00:36:07;1.80;;;0.85;;
19026;SDS011;9646;52.034;5.554;2023-04-03T00:38:35;2.15;;;1.10;;
19026;SDS011;9646;52.034;5.554;2023-04-03T00:41:02;1.25;;;0.88;;
19026;SDS011;9646;52.034;5.554;2023-04-03T00:43:29;1.27;;;0.95;;
19026;SDS011;9646;52.034;5.554;2023-04-03T00:45:56;1.40;;;0.68;;
19026;SDS011;9646;52.034;5.554;2023-04-03T00:48:27;1.35;;;0.80;;
19026;SDS011;9646;52.034;5.554;2023-04-03T00:50:54;2.35;;;1.02;;
19026;SDS011;9646;52.034;5.554;2023-04-03T00:53:23;1.00;;;0.82;;
19026;SDS011;9646;52.034;5.554;2023-04-03T00:55:52;1.42;;;0.90;;
19026;SDS011;9646;52.034;5.554;2023-04-03T00:58:20;1.30;;;0.90;;
19026;SDS011;9646;52.034;5.554;2023-04-03T01:00:50;2.15;;;0.90;;
19026;SDS011;9646;52.034;5.554;2023-04-03T01:03:22;1.58;;;0.90;;
19026;SDS011;9646;52.034;5.554;2023-04-03T01:05:50;1.08;;;0.70;;
19026;SDS011;9646;52.034;5.554;2023-04-03T01:08:17;1.15;;;0.88;;
19026;SDS011;9646;52.034;5.554;2023-04-03T01:10:45;2.40;;;1.13;;
19026;SDS011;9646;52.034;5.554;2023-04-03T01:13:19;2.45;;;1.10;;
19026;SDS011;9646;52.034;5.554;2023-04-03T01:15:47;1.70;;;0.95;;
19026;SDS011;9646;52.034;5.554;2023-04-03T01:18:14;1.55;;;0.93;;
19026;SDS011;9646;52.034;5.554;2023-04-03T01:26:10;1.23;;;0.90;;
19026;SDS011;9646;52.034;5.554;2023-04-03T01:28:37;2.83;;;1.00;;
19026;SDS011;9646;52.034;5.554;2023-04-03T01:31:07;2.03;;;1.00;;
19026;SDS011;9646;52.034;5.554;2023-04-03T01:33:38;2.00;;;0.80;;
19026;SDS011;9646;52.034;5.554;2023-04-03T01:36:05;1.17;;;0.93;;
19026;SDS011;9646;52.034;5.554;2023-04-03T01:38:33;2.15;;;1.02;;
19026;SDS011;9646;52.034;5.554;2023-04-03T01:41:00;2.78;;;0.90;;
19026;SDS011;9646;52.034;5.554;2023-04-03T01:43:27;1.63;;;0.70;;
19026;SDS011;9646;52.034;5.554;2023-04-03T01:45:54;1.88;;;0.82;;
19026;SDS011;9646;52.034;5.554;2023-04-03T01:48:21;2.28;;;0.82;;
19026;SDS011;9646;52.034;5.554;2023-04-03T01:50:50;1.70;;;1.00;;
19026;SDS011;9646;52.034;5.554;2023-04-03T01:53:17;2.55;;;0.98;;
19026;SDS011;9646;52.034;5.554;2023-04-03T01:55:44;1.88;;;1.10;;
19026;SDS011;9646;52.034;5.554;2023-04-03T01:58:11;1.60;;;0.88;;
19026;SDS011;9646;52.034;5.554;2023-04-03T02:00:38;2.00;;;0.93;;
19026;SDS011;9646;52.034;5.554;2023-04-03T02:03:05;1.60;;;0.90;;
19026;SDS011;9646;52.034;5.554;2023-04-03T02:05:32;1.00;;;0.90;;
19026;SDS011;9646;52.034;5.554;2023-04-03T02:08:01;3.33;;;1.00;;
19026;SDS011;9646;52.034;5.554;2023-04-03T02:10:28;1.35;;;0.73;;
19026;SDS011;9646;52.034;5.554;2023-04-03T02:12:55;2.28;;;0.90;;
19026;SDS011;9646;52.034;5.554;2023-04-03T02:15:22;2.92;;;0.88;;
19026;SDS011;9646;52.034;5.554;2023-04-03T02:17:50;1.45;;;1.00;;
19026;SDS011;9646;52.034;5.554;2023-04-03T02:20:18;1.77;;;0.82;;
19026;SDS011;9646;52.034;5.554;2023-04-03T02:22:45;3.65;;;0.82;;
19026;SDS011;9646;52.034;5.554;2023-04-03T02:25:13;3.45;;;0.93;;
19026;SDS011;9646;52.034;5.554;2023-04-03T02:27:42;1.00;;;0.80;;
19026;SDS011;9646;52.034;5.554;2023-04-03T02:30:10;1.45;;;0.73;;
19026;SDS011;9646;52.034;5.554;2023-04-03T02:32:37;3.97;;;1.10;;
19026;SDS011;9646;52.034;5.554;2023-04-03T02:35:06;1.88;;;0.85;;
19026;SDS011;9646;52.034;5.554;2023-04-03T02:37:33;1.48;;;0.85;;
19026;SDS011;9646;52.034;5.554;2023-04-03T02:40:00;1.63;;;0.90;;
19026;SDS011;9646;52.034;5.554;2023-04-03T02:42:29;2.60;;;0.88;;
19026;SDS011;9646;52.034;5.554;2023-04-03T02:44:56;1.45;;;1.10;;
19026;SDS011;9646;52.034;5.554;2023-04-03T02:47:25;2.13;;;1.00;;
19026;SDS011;9646;52.034;5.554;2023-04-03T02:49:52;1.80;;;0.90;;
19026;SDS011;9646;52.034;5.554;2023-04-03T02:52:19;2.17;;;1.13;;
19026;SDS011;9646;52.034;5.554;2023-04-03T02:54:46;1.63;;;0.63;;
19026;SDS011;9646;52.034;5.554;2023-04-03T02:57:13;1.75;;;0.90;;
19026;SDS011;9646;52.034;5.554;2023-04-03T02:59:42;1.75;;;0.90;;
19026;SDS011;9646;52.034;5.554;2023-04-03T03:02:09;1.67;;;0.80;;
19026;SDS011;9646;52.034;5.554;2023-04-03T03:04:37;2.05;;;1.00;;
19026;SDS011;9646;52.034;5.554;2023-04-03T03:07:04;1.65;;;0.77;;
19026;SDS011;9646;52.034;5.554;2023-04-03T03:09:31;2.33;;;1.10;;
19026;SDS011;9646;52.034;5.554;2023-04-03T03:11:59;1.48;;;0.95;;
19026;SDS011;9646;52.034;5.554;2023-04-03T03:14:26;2.67;;;1.08;;
19026;SDS011;9646;52.034;5.554;2023-04-03T03:16:54;3.95;;;1.05;;
19026;SDS011;9646;52.034;5.554;2023-04-03T03:19:21;2.45;;;0.90;;
19026;SDS011;9646;52.034;5.554;2023-04-03T03:21:48;1.95;;;0.77;;
19026;SDS011;9646;52.034;5.554;2023-04-03T03:24:16;2.58;;;1.00;;
19026;SDS011;9646;52.034;5.554;2023-04-03T03:26:43;2.50;;;1.20;;
19026;SDS011;9646;52.034;5.554;2023-04-03T03:29:10;1.40;;;0.70;;
19026;SDS011;9646;52.034;5.554;2023-04-03T03:31:37;2.40;;;1.10;;
19026;SDS011;9646;52.034;5.554;2023-04-03T03:34:05;3.45;;;0.88;;
19026;SDS011;9646;52.034;5.554;2023-04-03T03:36:32;1.65;;;1.08;;
19026;SDS011;9646;52.034;5.554;2023-04-03T03:38:59;1.33;;;0.90;;
19026;SDS011;9646;52.034;5.554;2023-04-03T03:41:26;1.77;;;1.10;;
19026;SDS011;9646;52.034;5.554;2023-04-03T03:43:53;3.05;;;1.00;;
19026;SDS011;9646;52.034;5.554;2023-04-03T03:46:21;1.63;;;0.73;;
19026;SDS011;9646;52.034;5.554;2023-04-03T03:48:48;2.70;;;0.88;;
19026;SDS011;9646;52.034;5.554;2023-04-03T03:51:16;2.42;;;0.80;;
19026;SDS011;9646;52.034;5.554;2023-04-03T03:53:43;1.45;;;0.95;;
19026;SDS011;9646;52.034;5.554;2023-04-03T03:56:10;2.42;;;1.10;;
19026;SDS011;9646;52.034;5.554;2023-04-03T03:58:37;6.55;;;1.23;;
19026;SDS011;9646;52.034;5.554;2023-04-03T04:01:05;1.67;;;0.95;;
19026;SDS011;9646;52.034;5.554;2023-04-03T04:03:33;1.55;;;0.88;;
19026;SDS011;9646;52.034;5.554;2023-04-03T04:06:00;2.17;;;1.05;;
19026;SDS011;9646;52.034;5.554;2023-04-03T04:08:28;3.10;;;0.90;;
19026;SDS011;9646;52.034;5.554;2023-04-03T04:10:55;2.08;;;0.90;;
19026;SDS011;9646;52.034;5.554;2023-04-03T04:13:23;2.50;;;0.98;;
19026;SDS011;9646;52.034;5.554;2023-04-03T04:15:50;1.52;;;0.82;;
19026;SDS011;9646;52.034;5.554;2023-04-03T04:18:17;2.08;;;0.70;;
19026;SDS011;9646;52.034;5.554;2023-04-03T04:20:45;1.30;;;0.95;;
19026;SDS011;9646;52.034;5.554;2023-04-03T04:23:12;1.58;;;0.90;;
19026;SDS011;9646;52.034;5.554;2023-04-03T04:25:41;1.45;;;0.90;;
19026;SDS011;9646;52.034;5.554;2023-04-03T04:28:10;3.80;;;1.25;;
19026;SDS011;9646;52.034;5.554;2023-04-03T04:30:37;1.80;;;0.80;;
19026;SDS011;9646;52.034;5.554;2023-04-03T04:33:05;1.52;;;1.00;;
19026;SDS011;9646;52.034;5.554;2023-04-03T04:35:32;2.08;;;1.05;;
19026;SDS011;9646;52.034;5.554;2023-04-03T04:37:59;2.83;;;1.10;;
19026;SDS011;9646;52.034;5.554;2023-04-03T04:40:26;1.75;;;1.00;;
19026;SDS011;9646;52.034;5.554;2023-04-03T04:42:55;2.20;;;1.00;;
19026;SDS011;9646;52.034;5.554;2023-04-03T04:45:22;1.70;;;1.13;;
19026;SDS011;9646;52.034;5.554;2023-04-03T04:47:49;2.88;;;1.33;;
19026;SDS011;9646;52.034;5.554;2023-04-03T04:50:17;1.65;;;1.00;;
19026;SDS011;9646;52.034;5.554;2023-04-03T04:52:44;3.13;;;1.02;;
19026;SDS011;9646;52.034;5.554;2023-04-03T04:55:12;1.90;;;0.98;;
19026;SDS011;9646;52.034;5.554;2023-04-03T04:57:39;1.98;;;1.02;;
19026;SDS011;9646;52.034;5.554;2023-04-03T05:00:08;1.67;;;0.90;;
19026;SDS011;9646;52.034;5.554;2023-04-03T05:02:35;1.88;;;0.90;;
19026;SDS011;9646;52.034;5.554;2023-04-03T05:05:02;3.13;;;1.10;;
19026;SDS011;9646;52.034;5.554;2023-04-03T05:07:29;1.88;;;1.10;;
19026;SDS011;9646;52.034;5.554;2023-04-03T05:09:56;2.10;;;1.00;;
19026;SDS011;9646;52.034;5.554;2023-04-03T05:12:24;2.60;;;1.10;;
19026;SDS011;9646;52.034;5.554;2023-04-03T05:14:51;1.98;;;0.90;;
19026;SDS011;9646;52.034;5.554;2023-04-03T05:17:19;3.95;;;1.30;;
19026;SDS011;9646;52.034;5.554;2023-04-03T05:19:46;3.45;;;1.02;;
19026;SDS011;9646;52.034;5.554;2023-04-03T05:22:13;1.30;;;0.80;;
19026;SDS011;9646;52.034;5.554;2023-04-03T05:24:41;2.17;;;1.20;;
19026;SDS011;9646;52.034;5.554;2023-04-03T05:27:08;1.95;;;0.90;;
19026;SDS011;9646;52.034;5.554;2023-04-03T05:29:35;2.20;;;1.08;;
19026;SDS011;9646;52.034;5.554;2023-04-03T05:32:03;1.17;;;1.05;;
19026;SDS011;9646;52.034;5.554;2023-04-03T05:34:31;9.10;;;1.70;;
19026;SDS011;9646;52.034;5.554;2023-04-03T05:36:58;5.47;;;1.80;;
19026;SDS011;9646;52.034;5.554;2023-04-03T05:39:28;3.90;;;1.73;;
19026;SDS011;9646;52.034;5.554;2023-04-03T05:41:56;3.90;;;1.83;;
19026;SDS011;9646;52.034;5.554;2023-04-03T05:44:23;3.58;;;1.48;;
19026;SDS011;9646;52.034;5.554;2023-04-03T05:46:50;4.00;;;1.58;;
19026;SDS011;9646;52.034;5.554;2023-04-03T05:49:17;5.30;;;1.77;;
19026;SDS011;9646;52.034;5.554;2023-04-03T05:51:46;9.27;;;1.70;;
19026;SDS011;9646;52.034;5.554;2023-04-03T05:54:14;3.45;;;1.60;;
19026;SDS011;9646;52.034;5.554;2023-04-03T05:56:42;4.18;;;1.35;;
19026;SDS011;9646;52.034;5.554;2023-04-03T05:59:10;2.60;;;1.40;;
19026;SDS011;9646;52.034;5.554;2023-04-03T06:01:37;4.22;;;1.40;;
19026;SDS011;9646;52.034;5.554;2023-04-03T06:04:04;3.13;;;1.50;;
19026;SDS011;9646;52.034;5.554;2023-04-03T06:06:43;2.67;;;1.30;;
19026;SDS011;9646;52.034;5.554;2023-04-03T06:09:11;6.18;;;1.65;;
19026;SDS011;9646;52.034;5.554;2023-04-03T06:11:39;3.30;;;1.48;;
19026;SDS011;9646;52.034;5.554;2023-04-03T06:14:06;3.10;;;1.15;;
19026;SDS011;9646;52.034;5.554;2023-04-03T06:16:34;3.40;;;1.63;;
19026;SDS011;9646;52.034;5.554;2023-04-03T06:19:01;3.05;;;1.55;;
19026;SDS011;9646;52.034;5.554;2023-04-03T06:21:29;4.45;;;1.38;;
19026;SDS011;9646;52.034;5.554;2023-04-03T06:23:56;3.78;;;1.40;;
19026;SDS011;9646;52.034;5.554;2023-04-03T06:26:24;8.30;;;1.77;;
19026;SDS011;9646;52.034;5.554;2023-04-03T06:28:52;4.82;;;1.40;;
19026;SDS011;9646;52.034;5.554;2023-04-03T06:31:19;3.38;;;1.30;;
19026;SDS011;9646;52.034;5.554;2023-04-03T06:33:46;4.07;;;1.33;;
19026;SDS011;9646;52.034;5.554;2023-04-03T06:36:13;5.22;;;1.42;;
19026;SDS011;9646;52.034;5.554;2023-04-03T06:38:44;4.38;;;1.55;;
19026;SDS011;9646;52.034;5.554;2023-04-03T06:41:11;5.63;;;1.55;;
19026;SDS011;9646;52.034;5.554;2023-04-03T06:43:40;4.13;;;1.67;;
19026;SDS011;9646;52.034;5.554;2023-04-03T06:46:09;4.07;;;1.90;;
19026;SDS011;9646;52.034;5.554;2023-04-03T06:48:38;4.78;;;1.38;;
19026;SDS011;9646;52.034;5.554;2023-04-03T06:51:05;3.75;;;1.27;;
19026;SDS011;9646;52.034;5.554;2023-04-03T06:53:32;3.65;;;1.15;;
19026;SDS011;9646;52.034;5.554;2023-04-03T06:55:59;2.88;;;1.48;;
19026;SDS011;9646;52.034;5.554;2023-04-03T06:58:26;5.28;;;1.75;;
19026;SDS011;9646;52.034;5.554;2023-04-03T07:00:54;3.85;;;1.60;;
19026;SDS011;9646;52.034;5.554;2023-04-03T07:03:21;3.25;;;1.50;;
19026;SDS011;9646;52.034;5.554;2023-04-03T07:05:49;3.50;;;1.27;;
19026;SDS011;9646;52.034;5.554;2023-04-03T07:08:16;3.65;;;1.20;;
19026;SDS011;9646;52.034;5.554;2023-04-03T07:10:43;2.17;;;0.93;;
19026;SDS011;9646;52.034;5.554;2023-04-03T07:13:10;3.70;;;1.50;;
19026;SDS011;9646;52.034;5.554;2023-04-03T07:15:37;3.55;;;1.30;;
19026;SDS011;9646;52.034;5.554;2023-04-03T07:18:05;2.67;;;1.15;;
19026;SDS011;9646;52.034;5.554;2023-04-03T07:20:33;3.75;;;1.92;;
19026;SDS011;9646;52.034;5.554;2023-04-03T07:23:00;4.82;;;1.42;;
19026;SDS011;9646;52.034;5.554;2023-04-03T07:25:27;5.63;;;2.17;;
19026;SDS011;9646;52.034;5.554;2023-04-03T07:27:55;2.47;;;0.88;;
19026;SDS011;9646;52.034;5.554;2023-04-03T07:30:22;3.45;;;1.50;;
19026;SDS011;9646;52.034;5.554;2023-04-03T07:32:49;2.83;;;1.48;;
19026;SDS011;9646;52.034;5.554;2023-04-03T07:35:17;9.82;;;1.70;;
19026;SDS011;9646;52.034;5.554;2023-04-03T07:37:45;4.22;;;1.33;;
19026;SDS011;9646;52.034;5.554;2023-04-03T07:40:12;4.40;;;1.20;;
19026;SDS011;9646;52.034;5.554;2023-04-03T07:42:39;3.40;;;1.15;;
19026;SDS011;9646;52.034;5.554;2023-04-03T07:45:07;2.72;;;1.33;;
19026;SDS011;9646;52.034;5.554;2023-04-03T07:47:34;2.90;;;1.00;;
19026;SDS011;9646;52.034;5.554;2023-04-03T07:50:01;3.83;;;1.33;;
19026;SDS011;9646;52.034;5.554;2023-04-03T07:52:30;2.78;;;1.02;;
19026;SDS011;9646;52.034;5.554;2023-04-03T07:54:57;4.78;;;1.30;;
19026;SDS011;9646;52.034;5.554;2023-04-03T07:57:24;4.10;;;1.27;;
19026;SDS011;9646;52.034;5.554;2023-04-03T07:59:51;3.10;;;1.30;;
19026;SDS011;9646;52.034;5.554;2023-04-03T08:02:18;2.60;;;1.20;;
19026;SDS011;9646;52.034;5.554;2023-04-03T08:04:46;3.75;;;1.20;;
19026;SDS011;9646;52.034;5.554;2023-04-03T08:07:13;1.83;;;1.13;;
19026;SDS011;9646;52.034;5.554;2023-04-03T08:09:41;1.83;;;1.02;;
19026;SDS011;9646;52.034;5.554;2023-04-03T08:12:09;3.00;;;1.20;;
19026;SDS011;9646;52.034;5.554;2023-04-03T08:14:36;1.77;;;0.98;;
19026;SDS011;9646;52.034;5.554;2023-04-03T08:17:03;1.60;;;1.02;;
19026;SDS011;9646;52.034;5.554;2023-04-03T08:19:30;2.83;;;0.90;;
19026;SDS011;9646;52.034;5.554;2023-04-03T08:21:58;2.00;;;0.90;;
19026;SDS011;9646;52.034;5.554;2023-04-03T08:24:27;2.17;;;0.93;;
19026;SDS011;9646;52.034;5.554;2023-04-03T08:26:56;1.90;;;0.90;;
19026;SDS011;9646;52.034;5.554;2023-04-03T08:29:24;2.28;;;1.20;;
19026;SDS011;9646;52.034;5.554;2023-04-03T08:31:51;2.90;;;1.25;;
19026;SDS011;9646;52.034;5.554;2023-04-03T08:34:18;3.20;;;0.98;;
19026;SDS011;9646;52.034;5.554;2023-04-03T08:36:46;1.77;;;1.00;;
19026;SDS011;9646;52.034;5.554;2023-04-03T08:39:13;1.77;;;0.98;;
19026;SDS011;9646;52.034;5.554;2023-04-03T08:41:41;2.38;;;0.73;;
19026;SDS011;9646;52.034;5.554;2023-04-03T08:44:16;1.23;;;0.70;;
19026;SDS011;9646;52.034;5.554;2023-04-03T08:46:47;2.42;;;0.98;;
19026;SDS011;9646;52.034;5.554;2023-04-03T08:49:18;2.47;;;0.95;;
19026;SDS011;9646;52.034;5.554;2023-04-03T08:51:48;2.28;;;0.80;;
19026;SDS011;9646;52.034;5.554;2023-04-03T08:54:19;1.80;;;0.80;;
19026;SDS011;9646;52.034;5.554;2023-04-03T08:56:47;1.65;;;0.90;;
19026;SDS011;9646;52.034;5.554;2023-04-03T08:59:17;2.05;;;0.85;;
19026;SDS011;9646;52.034;5.554;2023-04-03T09:01:48;2.72;;;1.00;;
19026;SDS011;9646;52.034;5.554;2023-04-03T09:04:16;3.63;;;0.93;;
19026;SDS011;9646;52.034;5.554;2023-04-03T09:06:44;2.25;;;1.13;;
19026;SDS011;9646;52.034;5.554;2023-04-03T09:09:15;0.82;;;0.60;;
19026;SDS011;9646;52.034;5.554;2023-04-03T09:11:46;1.13;;;0.77;;
19026;SDS011;9646;52.034;5.554;2023-04-03T09:14:15;1.05;;;0.68;;
19026;SDS011;9646;52.034;5.554;2023-04-03T09:16:46;1.08;;;0.77;;
19026;SDS011;9646;52.034;5.554;2023-04-03T09:19:18;2.30;;;1.00;;
19026;SDS011;9646;52.034;5.554;2023-04-03T09:21:48;1.75;;;0.80;;
19026;SDS011;9646;52.034;5.554;2023-04-03T09:24:16;1.00;;;0.60;;
19026;SDS011;9646;52.034;5.554;2023-04-03T09:26:44;0.77;;;0.55;;
19026;SDS011;9646;52.034;5.554;2023-04-03T09:29:14;1.48;;;0.70;;
19026;SDS011;9646;52.034;5.554;2023-04-03T09:31:43;1.25;;;0.77;;
19026;SDS011;9646;52.034;5.554;2023-04-03T09:34:15;2.35;;;0.60;;
19026;SDS011;9646;52.034;5.554;2023-04-03T09:36:46;1.63;;;0.80;;
19026;SDS011;9646;52.034;5.554;2023-04-03T09:39:14;1.98;;;0.75;;
19026;SDS011;9646;52.034;5.554;2023-04-03T09:41:42;0.52;;;0.50;;
19026;SDS011;9646;52.034;5.554;2023-04-03T09:44:21;0.68;;;0.43;;
19026;SDS011;9646;52.034;5.554;2023-04-03T09:46:49;2.15;;;0.60;;
19026;SDS011;9646;52.034;5.554;2023-04-03T09:49:17;1.20;;;0.60;;
19026;SDS011;9646;52.034;5.554;2023-04-03T09:51:45;1.50;;;0.57;;
19026;SDS011;9646;52.034;5.554;2023-04-03T09:54:25;1.08;;;0.60;;
19026;SDS011;9646;52.034;5.554;2023-04-03T09:56:53;1.30;;;0.60;;
19026;SDS011;9646;52.034;5.554;2023-04-03T09:59:21;1.13;;;0.60;;
19026;SDS011;9646;52.034;5.554;2023-04-03T10:01:56;0.60;;;0.45;;
19026;SDS011;9646;52.034;5.554;2023-04-03T10:04:25;0.73;;;0.55;;
19026;SDS011;9646;52.034;5.554;2023-04-03T10:07:03;0.55;;;0.40;;
19026;SDS011;9646;52.034;5.554;2023-04-03T10:09:30;1.15;;;0.30;;
19026;SDS011;9646;52.034;5.554;2023-04-03T10:12:00;0.93;;;0.50;;
19026;SDS011;9646;52.034;5.554;2023-04-03T10:14:29;1.80;;;0.30;;
19026;SDS011;9646;52.034;5.554;2023-04-03T10:16:59;1.05;;;0.50;;
19026;SDS011;9646;52.034;5.554;2023-04-03T10:19:36;1.50;;;0.50;;
19026;SDS011;9646;52.034;5.554;2023-04-03T10:22:09;0.70;;;0.50;;
19026;SDS011;9646;52.034;5.554;2023-04-03T10:24:43;0.47;;;0.28;;
19026;SDS011;9646;52.034;5.554;2023-04-03T10:27:12;0.70;;;0.40;;
19026;SDS011;9646;52.034;5.554;2023-04-03T10:29:41;0.50;;;0.40;;
19026;SDS011;9646;52.034;5.554;2023-04-03T10:32:16;0.30;;;0.30;;
19026;SDS011;9646;52.034;5.554;2023-04-03T10:34:48;0.73;;;0.40;;
19026;SDS011;9646;52.034;5.554;2023-04-03T10:37:18;1.85;;;0.40;;
19026;SDS011;9646;52.034;5.554;2023-04-03T10:39:49;0.70;;;0.40;;
19026;SDS011;9646;52.034;5.554;2023-04-03T10:42:22;1.58;;;0.40;;
19026;SDS011;9646;52.034;5.554;2023-04-03T10:44:52;1.17;;;0.30;;
19026;SDS011;9646;52.034;5.554;2023-04-03T10:47:24;0.40;;;0.30;;
19026;SDS011;9646;52.034;5.554;2023-04-03T10:49:56;0.52;;;0.43;;
19026;SDS011;9646;52.034;5.554;2023-04-03T10:52:28;0.98;;;0.40;;
19026;SDS011;9646;52.034;5.554;2023-04-03T10:55:01;0.70;;;0.35;;
19026;SDS011;9646;52.034;5.554;2023-04-03T10:57:30;0.70;;;0.40;;
19026;SDS011;9646;52.034;5.554;2023-04-03T10:59:58;0.90;;;0.47;;
19026;SDS011;9646;52.034;5.554;2023-04-03T11:02:27;1.77;;;0.75;;
19026;SDS011;9646;52.034;5.554;2023-04-03T11:04:57;0.65;;;0.30;;
19026;SDS011;9646;52.034;5.554;2023-04-03T11:07:28;1.45;;;0.85;;
19026;SDS011;9646;52.034;5.554;2023-04-03T11:09:58;1.30;;;0.35;;
19026;SDS011;9646;52.034;5.554;2023-04-03T11:12:30;1.45;;;0.40;;
19026;SDS011;9646;52.034;5.554;2023-04-03T11:15:00;0.82;;;0.30;;
19026;SDS011;9646;52.034;5.554;2023-04-03T11:17:30;0.90;;;0.50;;
19026;SDS011;9646;52.034;5.554;2023-04-03T11:20:03;1.65;;;0.57;;
19026;SDS011;9646;52.034;5.554;2023-04-03T11:22:33;0.63;;;0.30;;
19026;SDS011;9646;52.034;5.554;2023-04-03T11:25:04;0.88;;;0.40;;
19026;SDS011;9646;52.034;5.554;2023-04-03T11:27:33;0.30;;;0.30;;
19026;SDS011;9646;52.034;5.554;2023-04-03T11:30:02;1.92;;;0.40;;
19026;SDS011;9646;52.034;5.554;2023-04-03T11:35:18;0.95;;;0.40;;
19026;SDS011;9646;52.034;5.554;2023-04-03T11:37:47;1.50;;;0.45;;
19026;SDS011;9646;52.034;5.554;2023-04-03T11:40:22;0.82;;;0.60;;
19026;SDS011;9646;52.034;5.554;2023-04-03T11:42:52;0.63;;;0.30;;
19026;SDS011;9646;52.034;5.554;2023-04-03T11:45:29;2.72;;;0.50;;
19026;SDS011;9646;52.034;5.554;2023-04-03T11:47:59;0.47;;;0.30;;
19026;SDS011;9646;52.034;5.554;2023-04-03T11:50:32;0.73;;;0.40;;
19026;SDS011;9646;52.034;5.554;2023-04-03T11:55:54;0.95;;;0.40;;
19026;SDS011;9646;52.034;5.554;2023-04-03T11:58:22;1.00;;;0.50;;
19026;SDS011;9646;52.034;5.554;2023-04-03T12:01:03;0.60;;;0.50;;
19026;SDS011;9646;52.034;5.554;2023-04-03T12:09:11;1.05;;;0.45;;
19026;SDS011;9646;52.034;5.554;2023-04-03T12:11:49;1.45;;;0.60;;
19026;SDS011;9646;52.034;5.554;2023-04-03T12:14:16;0.65;;;0.45;;
19026;SDS011;9646;52.034;5.554;2023-04-03T12:16:44;0.82;;;0.40;;
19026;SDS011;9646;52.034;5.554;2023-04-03T12:22:10;0.60;;;0.30;;
19026;SDS011;9646;52.034;5.554;2023-04-03T12:24:39;0.85;;;0.30;;
19026;SDS011;9646;52.034;5.554;2023-04-03T12:29:56;1.13;;;0.60;;
19026;SDS011;9646;52.034;5.554;2023-04-03T12:32:36;0.93;;;0.50;;
19026;SDS011;9646;52.034;5.554;2023-04-03T12:35:12;0.93;;;0.57;;
19026;SDS011;9646;52.034;5.554;2023-04-03T12:40:30;0.63;;;0.30;;
19026;SDS011;9646;52.034;5.554;2023-04-03T12:43:16;0.80;;;0.50;;
19026;SDS011;9646;52.034;5.554;2023-04-03T12:45:46;0.63;;;0.40;;
19026;SDS011;9646;52.034;5.554;2023-04-03T12:48:15;2.00;;;0.50;;
19026;SDS011;9646;52.034;5.554;2023-04-03T12:50:43;1.33;;;0.50;;
19026;SDS011;9646;52.034;5.554;2023-04-03T12:53:12;0.93;;;0.47;;
19026;SDS011;9646;52.034;5.554;2023-04-03T12:55:42;1.45;;;0.50;;
19026;SDS011;9646;52.034;5.554;2023-04-03T12:58:16;0.93;;;0.50;;
19026;SDS011;9646;52.034;5.554;2023-04-03T13:00:43;0.90;;;0.50;;
19026;SDS011;9646;52.034;5.554;2023-04-03T13:03:21;1.13;;;0.70;;
19026;SDS011;9646;52.034;5.554;2023-04-03T13:05:49;0.88;;;0.38;;
19026;SDS011;9646;52.034;5.554;2023-04-03T13:08:16;0.47;;;0.30;;
19026;SDS011;9646;52.034;5.554;2023-04-03T13:10:50;1.25;;;0.55;;
19026;SDS011;9646;52.034;5.554;2023-04-03T13:13:18;1.33;;;0.50;;
19026;SDS011;9646;52.034;5.554;2023-04-03T13:15:46;0.63;;;0.30;;
19026;SDS011;9646;52.034;5.554;2023-04-03T13:18:22;2.28;;;0.60;;
19026;SDS011;9646;52.034;5.554;2023-04-03T13:20:49;2.30;;;0.60;;
19026;SDS011;9646;52.034;5.554;2023-04-03T13:23:17;0.40;;;0.28;;
19026;SDS011;9646;52.034;5.554;2023-04-03T13:25:45;1.20;;;0.52;;
19026;SDS011;9646;52.034;5.554;2023-04-03T13:28:15;1.52;;;0.60;;
19026;SDS011;9646;52.034;5.554;2023-04-03T13:30:53;1.50;;;0.75;;
19026;SDS011;9646;52.034;5.554;2023-04-03T13:33:22;1.02;;;0.50;;
19026;SDS011;9646;52.034;5.554;2023-04-03T13:35:54;2.03;;;0.70;;
19026;SDS011;9646;52.034;5.554;2023-04-03T13:38:23;1.15;;;0.60;;
19026;SDS011;9646;52.034;5.554;2023-04-03T13:40:51;0.88;;;0.40;;
19026;SDS011;9646;52.034;5.554;2023-04-03T13:43:21;1.42;;;0.60;;
19026;SDS011;9646;52.034;5.554;2023-04-03T13:45:54;1.00;;;0.40;;
19026;SDS011;9646;52.034;5.554;2023-04-03T13:48:21;2.85;;;0.43;;
19026;SDS011;9646;52.034;5.554;2023-04-03T13:50:50;1.02;;;0.60;;
19026;SDS011;9646;52.034;5.554;2023-04-03T13:53:18;1.27;;;0.50;;
19026;SDS011;9646;52.034;5.554;2023-04-03T13:55:53;1.90;;;0.63;;
19026;SDS011;9646;52.034;5.554;2023-04-03T13:58:23;1.50;;;0.55;;
19026;SDS011;9646;52.034;5.554;2023-04-03T14:00:52;2.08;;;0.50;;
19026;SDS011;9646;52.034;5.554;2023-04-03T14:03:20;1.10;;;0.30;;
19026;SDS011;9646;52.034;5.554;2023-04-03T14:05:48;0.73;;;0.47;;
19026;SDS011;9646;52.034;5.554;2023-04-03T14:08:16;1.75;;;0.60;;
19026;SDS011;9646;52.034;5.554;2023-04-03T14:10:43;0.80;;;0.50;;
19026;SDS011;9646;52.034;5.554;2023-04-03T14:13:12;1.15;;;0.47;;
19026;SDS011;9646;52.034;5.554;2023-04-03T14:15:41;2.67;;;0.57;;
19026;SDS011;9646;52.034;5.554;2023-04-03T14:18:10;1.17;;;0.88;;
19026;SDS011;9646;52.034;5.554;2023-04-03T14:20:38;1.75;;;0.63;;
19026;SDS011;9646;52.034;5.554;2023-04-03T14:23:05;1.00;;;0.60;;
19026;SDS011;9646;52.034;5.554;2023-04-03T14:25:32;1.05;;;0.60;;
19026;SDS011;9646;52.034;5.554;2023-04-03T14:28:00;1.33;;;0.80;;
19026;SDS011;9646;52.034;5.554;2023-04-03T14:30:28;1.27;;;0.70;;
19026;SDS011;9646;52.034;5.554;2023-04-03T14:32:57;0.70;;;0.50;;
19026;SDS011;9646;52.034;5.554;2023-04-03T14:35:25;1.60;;;0.70;;
19026;SDS011;9646;52.034;5.554;2023-04-03T14:37:52;1.05;;;0.60;;
19026;SDS011;9646;52.034;5.554;2023-04-03T14:40:21;1.33;;;0.40;;
19026;SDS011;9646;52.034;5.554;2023-04-03T14:42:49;1.25;;;0.68;;
19026;SDS011;9646;52.034;5.554;2023-04-03T14:45:16;0.85;;;0.57;;
19026;SDS011;9646;52.034;5.554;2023-04-03T14:47:45;1.08;;;0.60;;
19026;SDS011;9646;52.034;5.554;2023-04-03T14:50:16;1.15;;;0.70;;
19026;SDS011;9646;52.034;5.554;2023-04-03T14:52:44;1.10;;;0.70;;
19026;SDS011;9646;52.034;5.554;2023-04-03T14:55:11;1.95;;;0.68;;
19026;SDS011;9646;52.034;5.554;2023-04-03T14:57:39;1.27;;;0.57;;
19026;SDS011;9646;52.034;5.554;2023-04-03T15:00:07;1.13;;;0.60;;
19026;SDS011;9646;52.034;5.554;2023-04-03T15:02:35;0.95;;;0.60;;
19026;SDS011;9646;52.034;5.554;2023-04-03T15:05:03;2.33;;;0.65;;
19026;SDS011;9646;52.034;5.554;2023-04-03T15:07:34;1.05;;;0.50;;
19026;SDS011;9646;52.034;5.554;2023-04-03T15:10:02;2.30;;;0.75;;
19026;SDS011;9646;52.034;5.554;2023-04-03T15:12:30;1.10;;;0.60;;
19026;SDS011;9646;52.034;5.554;2023-04-03T15:14:57;2.45;;;0.60;;
19026;SDS011;9646;52.034;5.554;2023-04-03T15:17:24;1.95;;;0.60;;
19026;SDS011;9646;52.034;5.554;2023-04-03T15:19:52;1.00;;;0.63;;
19026;SDS011;9646;52.034;5.554;2023-04-03T15:22:19;2.22;;;0.60;;
19026;SDS011;9646;52.034;5.554;2023-04-03T15:24:48;2.30;;;0.90;;
19026;SDS011;9646;52.034;5.554;2023-04-03T15:27:15;0.95;;;0.50;;
19026;SDS011;9646;52.034;5.554;2023-04-03T15:29:43;1.77;;;0.60;;
19026;SDS011;9646;52.034;5.554;2023-04-03T15:32:10;2.35;;;0.88;;
19026;SDS011;9646;52.034;5.554;2023-04-03T15:34:37;2.08;;;0.73;;